Dawn, MO

6:59 AM CDT on November 01, 2014 (GMT -0500)
Northwest Chillicothe | Change Station
CLOSE
Current Station
Personal Weather Station
Location: Chillicothe, MO
Elevation: 843 ft
Nearby Weather Stations
Active Advisory: Freeze Warning Active Notice: Record Report, Public Information Statement

Elev 843 ft 39.82 °N, 93.60 °W | Updated 19 minutes ago

Clear
Clear
26.3 °F
Feels Like 26 °F
N
0.0
Wind Variable Wind from NE
Gusts 0.0 mph

Today
High -- | Low -- °F
--% Chance of Precip.
Yesterday
High -- | Low -- °F
Precip. -- in
7:42 AM 6:12 PM
Waxing Gibbous, 66% visible
Pressure 30.48 in
Visibility 10.0 miles
Clouds Clear
Windchill 26 °F
Dew Point 18 °F
Humidity 69%
Rainfall 0.00 in
Snow Depth Not available.
UV 0 out of 12
Pollen .30 out of 12
Air Quality Not available.
Flu Activity Not available.
METAR KGPH 011155Z AUTO 00000KT 10SM CLR M05/M05 A3048 RMK AO2

More Conditions Fewer Conditions

Pressure 30.48 in
Visibility 10.0 miles
Clouds Clear
Windchill 26 °F
Dew Point 18 °F
Humidity 69%
Rainfall 0.00 in
Snow Depth Not available.
UV 0 out of 12
Pollen .30 out of 12
Air Quality Not available.
Flu Activity Not available.
METAR KGPH 011155Z AUTO 00000KT 10SM CLR M05/M05 A3048 RMK AO2

More Conditions Fewer Conditions

10-Day Weather Forecast

Almanac

Astronomy

Nov. 01, 2014 Rise Set
Actual Time
Civil Twilight
Nautical Twilight
Astronomical Twilight
Moon
Length of Visible Light
Length of Day
Tomorrow will be .
, % of the Moon is Illuminated

Today's Extremes

State Highs State Lows

Community

WunderPhotos

Upload Photos

1,766,903 photos uploaded!

WunderBlogs® & News

Nearby

Air Quality

  Air Quality AQ Index Pollutant
Not available.

Snow Depth

Station Depth Elevation

Earthquake Activity

City Distance Mag. Time & Date
Minimum magnitude displayed is 2.5.

Coastal Water Temperatures

Place Temperature

Nearby Weather Stations